Time;durP1;ratioP1;P1;durP2;ratioP2;P2;SDS_P1;SDS_P2;PMS_P1;PMS_P2;Temp;Humidity;BMP_temperature;BMP_pressure;BME280_temperature;BME280_humidity;BME280_pressure;Samples;Min_cycle;Max_cycle;Signal;HPM_P1;HPM_P2
2023/05/04 00:02:02;;;;;;;5.67;2.83;;;10.50;98.00;;;;;;5031979;28;20468;-67
2023/05/04 00:04:29;;;;;;;3.47;2.60;;;10.50;98.00;;;;;;5032861;28;20461;-67
2023/05/04 00:06:56;;;;;;;4.67;2.93;;;10.40;98.00;;;;;;5032746;28;20990;-67
2023/05/04 00:09:23;;;;;;;6.80;2.73;;;10.40;98.00;;;;;;5032927;28;20467;-67
2023/05/04 00:11:52;;;;;;;5.60;3.30;;;10.30;98.00;;;;;;5015244;28;20468;-67
2023/05/04 00:14:19;;;;;;;8.20;3.03;;;10.30;98.00;;;;;;5033381;28;20779;-67
2023/05/04 00:16:50;;;;;;;6.60;2.80;;;10.20;98.00;;;;;;5032997;28;20864;-67
2023/05/04 00:19:18;;;;;;;4.80;2.67;;;10.20;98.00;;;;;;5033218;28;20536;-67
2023/05/04 00:21:45;;;;;;;6.70;2.90;;;10.20;98.00;;;;;;5032496;28;20547;-67
2023/05/04 00:24:12;;;;;;;4.60;2.60;;;10.30;98.00;;;;;;5032847;28;20450;-67
2023/05/04 00:26:39;;;;;;;3.60;2.47;;;10.20;98.00;;;;;;5032356;28;20992;-67
2023/05/04 00:29:08;;;;;;;5.03;2.87;;;10.10;98.00;;;;;;5032619;28;20472;-67
2023/05/04 00:31:35;;;;;;;4.23;2.90;;;10.20;98.00;;;;;;5014840;28;20470;-67
2023/05/04 00:34:02;;;;;;;6.60;3.30;;;10.20;98.00;;;;;;5032336;28;20462;-67
2023/05/04 00:36:29;;;;;;;5.67;2.63;;;10.20;98.00;;;;;;5032292;28;20465;-67
2023/05/04 00:38:56;;;;;;;4.00;2.60;;;10.20;98.00;;;;;;5032267;28;20856;-67
2023/05/04 00:41:23;;;;;;;4.47;2.23;;;10.10;98.00;;;;;;5032020;28;20489;-67
2023/05/04 00:43:50;;;;;;;4.30;2.57;;;10.00;98.00;;;;;;5032098;28;20459;-67
2023/05/04 00:46:19;;;;;;;10.03;3.07;;;10.00;98.00;;;;;;5032324;28;20472;-67
2023/05/04 00:48:48;;;;;;;6.10;3.20;;;10.20;98.00;;;;;;5032031;28;20464;-67
2023/05/04 00:51:21;;;;;;;4.83;2.80;;;10.10;98.00;;;;;;5032056;28;20456;-67
2023/05/04 00:53:49;;;;;;;5.20;2.30;;;10.00;98.00;;;;;;5031999;28;20453;-67
2023/05/04 00:56:21;;;;;;;4.00;2.63;;;10.00;98.00;;;;;;5031793;28;20463;-67
2023/05/04 00:58:50;;;;;;;3.80;2.30;;;10.10;98.00;;;;;;5031807;28;20989;-67
2023/05/04 01:01:19;;;;;;;8.77;3.47;;;10.10;98.00;;;;;;5032036;28;20490;-67
2023/05/04 01:03:46;;;;;;;6.60;2.83;;;10.00;98.00;;;;;;5031993;28;20485;-67
2023/05/04 01:06:21;;;;;;;4.83;2.73;;;9.90;98.00;;;;;;5031829;28;20454;-67
2023/05/04 01:08:58;;;;;;;8.13;3.30;;;9.90;98.00;;;;;;5014983;28;20466;-67
2023/05/04 01:11:31;;;;;;;5.00;2.80;;;9.70;98.00;;;;;;5031884;28;20462;-67
2023/05/04 01:14:02;;;;;;;4.40;2.60;;;9.70;98.00;;;;;;5031818;28;20458;-67
2023/05/04 01:16:30;;;;;;;4.83;2.23;;;9.70;98.00;;;;;;5031434;28;20982;-67
2023/05/04 01:21:41;;;;;;;4.80;2.57;;;9.60;98.00;;;;;;5031279;28;20489;-67
2023/05/04 01:24:08;;;;;;;5.00;2.80;;;9.70;98.00;;;;;;5031408;28;20455;-66
2023/05/04 01:26:40;;;;;;;5.17;3.13;;;9.50;98.00;;;;;;5031326;28;20468;-66
2023/05/04 01:29:16;;;;;;;4.17;2.83;;;9.30;98.00;;;;;;5031567;28;20457;-67
2023/05/04 01:31:44;;;;;;;5.13;2.40;;;9.40;98.00;;;;;;5031398;28;20505;-66
2023/05/04 01:34:13;;;;;;;6.00;2.87;;;9.40;98.00;;;;;;5031239;28;20539;-67
2023/05/04 01:36:42;;;;;;;5.57;2.77;;;9.30;98.00;;;;;;5031168;28;20818;-67
2023/05/04 01:39:09;;;;;;;5.20;2.73;;;9.20;98.00;;;;;;5031241;28;20513;-67
2023/05/04 01:41:37;;;;;;;7.13;3.10;;;9.10;98.00;;;;;;5013666;28;20514;-66
2023/05/04 01:44:05;;;;;;;8.20;3.07;;;9.10;98.00;;;;;;5030857;28;20470;-66
2023/05/04 01:46:32;;;;;;;6.63;2.93;;;9.10;98.00;;;;;;5031134;28;20457;-66
2023/05/04 01:48:59;;;;;;;4.53;2.33;;;9.10;98.00;;;;;;5031093;28;20462;-67
2023/05/04 01:51:26;;;;;;;5.90;3.20;;;9.10;98.00;;;;;;5031225;28;20628;-67
2023/05/04 01:53:54;;;;;;;5.50;2.63;;;9.20;98.00;;;;;;5031232;28;20479;-66
2023/05/04 01:56:22;;;;;;;4.90;2.70;;;9.00;98.00;;;;;;5031041;28;20458;-66
2023/05/04 01:58:49;;;;;;;6.30;2.90;;;9.00;98.00;;;;;;5031005;28;20462;-67
2023/05/04 02:01:16;;;;;;;4.90;2.50;;;8.80;98.00;;;;;;5030766;28;20482;-66
2023/05/04 02:03:43;;;;;;;17.30;3.43;;;8.90;98.00;;;;;;5013600;28;20473;-66
2023/05/04 02:06:10;;;;;;;4.23;2.60;;;9.10;98.00;;;;;;5031171;28;20463;-66
2023/05/04 02:08:38;;;;;;;5.43;2.67;;;;;;;;;;5031219;28;20467;-67
2023/05/04 02:11:06;;;;;;;5.73;3.00;;;9.20;98.00;;;;;;5013642;28;20457;-66
2023/05/04 02:13:33;;;;;;;4.97;2.60;;;9.20;98.00;;;;;;5030959;28;20450;-67
2023/05/04 02:16:00;;;;;;;4.60;2.70;;;9.20;98.00;;;;;;5030918;28;20457;-66
2023/05/04 02:18:27;;;;;;;6.50;2.63;;;9.30;98.00;;;;;;5030902;28;20512;-66
2023/05/04 02:20:54;;;;;;;6.67;3.47;;;9.40;98.00;;;;;;5013268;28;20507;-66
2023/05/04 02:23:22;;;;;;;6.00;3.20;;;9.40;98.00;;;;;;5030846;28;20465;-66
2023/05/04 02:25:49;;;;;;;5.33;3.17;;;9.30;98.00;;;;;;5032252;28;20535;-67
2023/05/04 02:28:18;;;;;;;5.60;2.77;;;9.30;98.00;;;;;;5034640;28;20463;-66
2023/05/04 02:30:45;;;;;;;7.53;3.40;;;9.20;98.00;;;;;;5004261;28;20450;-67
2023/05/04 02:33:13;;;;;;;7.73;3.50;;;9.20;98.00;;;;;;5054494;28;20449;-66
2023/05/04 02:35:41;;;;;;;6.20;2.90;;;9.00;98.00;;;;;;5054656;28;20970;-66
2023/05/04 02:38:08;;;;;;;9.93;3.27;;;8.90;98.00;;;;;;5054387;28;20466;-66
2023/05/04 02:40:35;;;;;;;8.60;3.10;;;8.80;98.00;;;;;;5054459;28;20512;-66
2023/05/04 02:43:03;;;;;;;8.40;3.17;;;8.70;98.00;;;;;;5054449;28;20461;-66
2023/05/04 02:45:31;;;;;;;4.87;2.67;;;8.50;98.00;;;;;;5054401;28;20511;-66
2023/05/04 02:47:58;;;;;;;5.47;3.00;;;8.60;98.00;;;;;;5054202;28;20448;-66
2023/05/04 02:50:25;;;;;;;4.07;2.37;;;8.60;98.00;;;;;;5036843;28;20461;-66
2023/05/04 02:52:52;;;;;;;4.97;2.83;;;8.50;98.00;;;;;;5054110;28;20465;-66
2023/05/04 02:55:19;;;;;;;5.33;2.73;;;8.40;98.00;;;;;;5054209;28;20468;-66
2023/05/04 02:57:47;;;;;;;5.47;3.20;;;8.40;98.00;;;;;;5053931;28;20483;-66
2023/05/04 03:00:15;;;;;;;4.83;2.73;;;8.40;98.00;;;;;;5054399;28;20828;-66
2023/05/04 03:02:43;;;;;;;5.80;3.17;;;8.40;98.00;;;;;;5054236;28;20493;-66
2023/05/04 03:05:10;;;;;;;6.03;2.53;;;8.40;98.00;;;;;;5036297;28;20464;-66
2023/05/04 03:07:38;;;;;;;4.77;2.73;;;8.50;98.00;;;;;;5053815;28;20446;-66
2023/05/04 03:10:08;;;;;;;3.30;2.57;;;8.70;98.00;;;;;;5054274;28;20477;-66
2023/05/04 03:12:35;;;;;;;5.60;3.23;;;8.60;98.00;;;;;;5036365;28;20446;-66
2023/05/04 03:15:02;;;;;;;5.87;2.80;;;8.60;98.00;;;;;;5053801;28;20470;-66
2023/05/04 03:17:29;;;;;;;6.20;2.83;;;8.40;98.00;;;;;;5036068;28;20459;-66
2023/05/04 03:19:57;;;;;;;6.07;3.13;;;8.30;98.00;;;;;;5053717;28;20454;-66
2023/05/04 03:22:28;;;;;;;8.83;3.40;;;8.20;98.00;;;;;;5053448;28;20656;-66
2023/05/04 03:24:55;;;;;;;7.07;3.40;;;8.30;98.00;;;;;;5053620;28;20456;-66
2023/05/04 03:27:22;;;;;;;5.63;2.90;;;8.20;98.00;;;;;;5053418;28;20460;-66
2023/05/04 03:29:49;;;;;;;8.57;3.83;;;8.30;98.00;;;;;;5053568;28;20457;-66
2023/05/04 03:32:17;;;;;;;5.20;3.27;;;8.30;98.00;;;;;;5035249;28;20461;-66
2023/05/04 03:34:44;;;;;;;9.73;3.70;;;8.30;98.00;;;;;;5053460;28;20464;-66
2023/05/04 03:37:13;;;;;;;7.00;3.63;;;8.20;98.00;;;;;;5053273;28;20508;-66
2023/05/04 03:39:40;;;;;;;6.13;3.10;;;8.30;98.00;;;;;;5053377;28;20457;-66
2023/05/04 03:42:07;;;;;;;7.90;3.07;;;8.40;98.00;;;;;;5053029;28;21002;-66
2023/05/04 03:44:34;;;;;;;13.67;6.70;;;8.50;98.00;;;;;;5035415;28;20961;-66
2023/05/04 03:47:01;;;;;;;12.53;4.20;;;8.30;98.00;;;;;;5035505;28;20459;-66
2023/05/04 03:49:28;;;;;;;6.50;3.10;;;8.10;98.00;;;;;;5053121;28;20483;-66
2023/05/04 03:51:55;;;;;;;7.53;3.30;;;8.20;98.00;;;;;;5053133;28;20452;-66
2023/05/04 03:54:24;;;;;;;6.50;3.13;;;8.20;98.00;;;;;;5053211;28;20460;-66
2023/05/04 03:56:53;;;;;;;6.87;3.50;;;8.20;98.00;;;;;;5052799;28;20493;-66
2023/05/04 03:59:20;;;;;;;6.50;3.50;;;8.10;98.00;;;;;;5036003;28;20453;-66
2023/05/04 04:01:47;;;;;;;4.67;2.47;;;8.00;98.00;;;;;;5052837;28;20488;-66
2023/05/04 04:04:14;;;;;;;6.97;3.10;;;8.00;98.00;;;;;;5053129;28;20449;-66
2023/05/04 04:06:41;;;;;;;5.17;3.13;;;8.00;98.00;;;;;;5052734;28;20459;-66
2023/05/04 04:09:08;;;;;;;5.33;2.80;;;8.20;98.00;;;;;;5052983;28;20487;-66
2023/05/04 04:11:36;;;;;;;6.30;3.10;;;8.20;98.00;;;;;;5052687;28;20461;-66
2023/05/04 04:14:04;;;;;;;9.33;3.23;;;8.10;98.00;;;;;;5052793;28;20825;-66
2023/05/04 04:16:31;;;;;;;6.27;3.20;;;8.20;98.00;;;;;;5052563;28;20802;-66
2023/05/04 04:19:00;;;;;;;5.37;3.00;;;8.20;98.00;;;;;;5052410;28;20469;-66
2023/05/04 04:21:28;;;;;;;6.77;3.60;;;8.10;98.00;;;;;;5018893;28;21023;-66
2023/05/04 04:23:55;;;;;;;12.37;3.13;;;8.10;98.00;;;;;;5052458;28;20469;-66
2023/05/04 04:26:22;;;;;;;8.00;3.60;;;8.10;98.00;;;;;;5034796;28;20455;-66
2023/05/04 04:28:50;;;;;;;4.70;3.10;;;8.00;98.00;;;;;;5034840;28;20453;-66
2023/05/04 04:31:19;;;;;;;8.07;3.10;;;8.00;98.00;;;;;;5052285;28;20456;-66
2023/05/04 04:33:46;;;;;;;7.30;3.17;;;8.00;98.00;;;;;;5052416;28;20457;-66
2023/05/04 04:36:24;;;;;;;3.80;2.70;;;8.10;98.00;;;;;;5052406;28;20539;-66
2023/05/04 04:38:51;;;;;;;7.53;3.33;;;8.20;98.00;;;;;;5034752;28;20454;-66
2023/05/04 04:41:18;;;;;;;5.73;3.10;;;8.20;98.00;;;;;;5052187;28;20908;-66
2023/05/04 04:43:46;;;;;;;8.83;3.93;;;8.20;98.00;;;;;;5052085;28;20794;-66
2023/05/04 04:46:14;;;;;;;4.90;3.00;;;8.30;98.00;;;;;;5052165;28;20515;-66
2023/05/04 04:48:41;;;;;;;8.67;3.40;;;8.20;98.00;;;;;;5051682;28;20454;-66
2023/05/04 04:51:11;;;;;;;6.73;3.33;;;8.20;98.00;;;;;;5051738;28;20485;-66
2023/05/04 04:53:38;;;;;;;7.43;3.50;;;8.30;98.00;;;;;;5051934;28;20486;-66
2023/05/04 04:56:06;;;;;;;6.23;3.20;;;8.30;98.00;;;;;;5052021;28;20527;-66
2023/05/04 04:58:33;;;;;;;11.67;3.20;;;8.40;98.00;;;;;;5051708;28;20468;-66
2023/05/04 05:01:01;;;;;;;6.40;3.40;;;8.40;98.00;;;;;;5017724;28;20515;-66
2023/05/04 05:03:29;;;;;;;5.60;3.30;;;8.50;98.00;;;;;;5051722;28;20543;-66
2023/05/04 05:05:57;;;;;;;7.03;3.63;;;8.50;98.00;;;;;;5051792;28;20463;-66
2023/05/04 05:08:24;;;;;;;6.00;3.17;;;8.50;98.00;;;;;;5051621;28;20461;-66
2023/05/04 05:10:51;;;;;;;7.43;2.87;;;8.50;98.00;;;;;;5033972;28;20831;-66
2023/05/04 05:13:18;;;;;;;32.93;4.70;;;8.30;98.00;;;;;;5051498;28;20467;-66
2023/05/04 05:15:45;;;;;;;4.30;2.83;;;8.30;98.00;;;;;;5051492;28;20452;-66
2023/05/04 05:18:12;;;;;;;8.53;3.70;;;8.30;98.00;;;;;;5050902;28;20462;-66
2023/05/04 05:20:41;;;;;;;4.80;3.00;;;8.40;98.00;;;;;;5033923;28;20461;-66
2023/05/04 05:23:08;;;;;;;6.83;3.63;;;8.60;98.00;;;;;;5051272;28;21038;-66
2023/05/04 05:25:35;;;;;;;7.97;3.40;;;8.70;98.00;;;;;;5051474;28;20978;-66
2023/05/04 05:28:03;;;;;;;7.10;3.20;;;8.80;98.00;;;;;;5051452;28;20458;-66
2023/05/04 05:30:30;;;;;;;6.87;3.20;;;9.00;98.00;;;;;;5051470;28;20476;-66
2023/05/04 05:32:57;;;;;;;5.40;3.33;;;9.20;98.00;;;;;;5033673;28;20484;-66
2023/05/04 05:35:24;;;;;;;7.00;3.57;;;9.30;98.00;;;;;;5052415;28;20457;-66
2023/05/04 05:37:55;;;;;;;10.13;4.10;;;9.40;98.00;;;;;;5051924;28;20460;-66
2023/05/04 05:40:22;;;;;;;7.60;3.30;;;9.50;98.00;;;;;;5051585;28;20563;-66
2023/05/04 05:42:49;;;;;;;7.80;3.70;;;9.50;98.00;;;;;;5052426;28;20557;-66
2023/05/04 05:45:18;;;;;;;6.93;3.60;;;9.50;98.00;;;;;;5051920;28;20550;-66
2023/05/04 05:47:45;;;;;;;6.93;3.50;;;9.60;98.00;;;;;;5051277;28;20454;-66
2023/05/04 05:50:13;;;;;;;17.30;4.13;;;9.70;98.00;;;;;;5051242;28;20457;-66
2023/05/04 05:52:40;;;;;;;6.30;3.70;;;9.80;98.00;;;;;;5051187;28;20453;-66
2023/05/04 05:55:10;;;;;;;5.93;3.20;;;9.90;98.00;;;;;;5051501;28;20940;-66
2023/05/04 05:57:37;;;;;;;10.47;4.77;;;10.00;98.00;;;;;;5050906;28;20461;-66
2023/05/04 06:00:06;;;;;;;8.17;3.40;;;10.00;98.00;;;;;;5051633;28;20467;-66
2023/05/04 06:02:34;;;;;;;6.63;3.67;;;10.00;98.00;;;;;;5055250;28;20489;-64
2023/05/04 06:05:01;;;;;;;8.57;3.20;;;10.10;98.00;;;;;;5055132;28;20446;-64
2023/05/04 06:07:28;;;;;;;4.80;2.87;;;10.20;98.00;;;;;;5055130;28;20457;-64
2023/05/04 06:09:56;;;;;;;7.43;3.17;;;10.40;98.00;;;;;;5055017;28;20461;-64
2023/05/04 06:12:24;;;;;;;11.73;3.80;;;10.50;98.00;;;;;;5054944;28;20534;-64
2023/05/04 06:14:51;;;;;;;6.97;3.73;;;10.60;98.00;;;;;;5037001;28;21031;-65
2023/05/04 06:17:20;;;;;;;7.87;3.40;;;10.70;98.00;;;;;;5054854;28;20456;-64
2023/05/04 06:19:49;;;;;;;9.00;4.57;;;10.90;98.00;;;;;;5054397;28;20457;-64
2023/05/04 06:22:17;;;;;;;8.10;4.13;;;11.00;98.00;;;;;;5054926;28;20493;-65
2023/05/04 06:24:44;;;;;;;10.47;4.00;;;11.20;98.00;;;;;;5055110;28;20498;-65
2023/05/04 06:27:11;;;;;;;8.23;3.50;;;11.40;98.00;;;;;;5054760;28;20463;-66
2023/05/04 06:29:40;;;;;;;10.77;4.30;;;11.40;98.00;;;;;;5054838;28;20463;-65
2023/05/04 06:32:07;;;;;;;10.10;4.00;;;11.50;98.00;;;;;;5054608;28;20550;-64
2023/05/04 06:34:35;;;;;;;12.40;5.17;;;11.70;98.00;;;;;;5054704;28;20466;-65
2023/05/04 06:37:03;;;;;;;8.37;4.23;;;;;;;;;;5036899;28;20454;-65
2023/05/04 06:39:30;;;;;;;14.90;4.60;;;12.10;98.00;;;;;;5054776;28;20456;-65
2023/05/04 06:41:58;;;;;;;14.23;5.10;;;;;;;;;;5053339;28;20573;-64
2023/05/04 06:44:25;;;;;;;14.10;4.93;;;12.40;98.00;;;;;;5037010;28;20516;-65
2023/05/04 06:46:54;;;;;;;8.63;4.20;;;12.40;98.00;;;;;;5054388;28;20796;-66
2023/05/04 06:49:21;;;;;;;10.33;4.70;;;12.50;98.00;;;;;;5036771;28;20533;-65
2023/05/04 06:51:48;;;;;;;9.80;4.73;;;12.60;98.00;;;;;;5054182;28;20461;-65
2023/05/04 06:54:16;;;;;;;7.83;4.30;;;12.70;98.00;;;;;;5054326;28;20482;-65
2023/05/04 06:56:43;;;;;;;9.07;4.20;;;12.80;98.00;;;;;;5036368;28;20470;-65
2023/05/04 06:59:10;;;;;;;9.50;4.17;;;13.10;98.00;;;;;;5054241;28;20951;-64
2023/05/04 07:01:37;;;;;;;7.23;3.63;;;13.20;98.00;;;;;;5053929;28;20474;-64
2023/05/04 07:04:06;;;;;;;8.93;4.00;;;13.30;98.00;;;;;;5054147;28;20767;-64
2023/05/04 07:06:33;;;;;;;10.67;4.60;;;13.50;98.00;;;;;;5054094;28;20470;-65
2023/05/04 07:09:00;;;;;;;8.97;4.30;;;13.70;98.00;;;;;;5054552;28;20457;-65
2023/05/04 07:11:27;;;;;;;12.40;5.20;;;13.90;98.00;;;;;;5054108;28;20514;-65
2023/05/04 07:13:55;;;;;;;8.67;3.97;;;14.00;98.00;;;;;;5054464;28;20466;-65
2023/05/04 07:16:22;;;;;;;9.70;4.50;;;14.10;98.00;;;;;;5049553;28;20977;-65
2023/05/04 07:18:49;;;;;;;9.70;4.97;;;14.30;98.00;;;;;;5014361;28;20836;-65
2023/05/04 07:21:18;;;;;;;8.50;4.43;;;14.40;98.00;;;;;;5014644;28;20835;-65
2023/05/04 07:23:45;;;;;;;10.70;5.00;;;14.60;98.00;;;;;;5014385;28;20486;-65
2023/05/04 07:26:12;;;;;;;9.80;4.40;;;14.80;98.00;;;;;;5014604;28;20570;-65
2023/05/04 07:28:42;;;;;;;11.23;4.80;;;14.90;98.00;;;;;;5014234;28;20464;-65
2023/05/04 07:31:09;;;;;;;9.17;4.43;;;15.00;98.00;;;;;;5014632;28;20505;-65
2023/05/04 07:33:36;;;;;;;10.83;4.73;;;15.10;98.00;;;;;;5014320;28;20546;-65
2023/05/04 07:36:04;;;;;;;13.93;5.43;;;15.20;98.00;;;;;;5014552;28;20472;-65
2023/05/04 07:38:32;;;;;;;7.40;4.30;;;15.30;98.00;;;;;;5014545;28;20988;-65
2023/05/04 07:40:59;;;;;;;9.13;4.47;;;15.30;98.00;;;;;;5014089;28;20482;-64
2023/05/04 07:43:29;;;;;;;7.97;4.53;;;15.50;98.00;;;;;;5017169;28;20486;-64
2023/05/04 07:45:56;;;;;;;9.00;4.20;;;15.60;98.00;;;;;;5016189;28;20953;-64
2023/05/04 07:48:23;;;;;;;7.10;4.03;;;15.70;98.00;;;;;;5016175;28;20497;-64
2023/05/04 07:50:50;;;;;;;11.10;4.73;;;15.90;98.00;;;;;;5033752;28;20817;-64
2023/05/04 07:53:19;;;;;;;10.03;4.60;;;15.90;98.00;;;;;;5016054;28;20542;-64
2023/05/04 07:55:47;;;;;;;10.20;4.83;;;16.00;98.00;;;;;;5033451;28;20461;-64
2023/05/04 07:58:15;;;;;;;8.60;4.27;;;16.20;98.00;;;;;;5033463;28;20471;-63
2023/05/04 08:00:42;;;;;;;7.90;4.20;;;16.30;98.00;;;;;;5033528;28;20469;-64
2023/05/04 08:03:09;;;;;;;14.13;5.00;;;16.50;98.00;;;;;;5033512;28;20851;-65
2023/05/04 08:05:37;;;;;;;8.93;3.97;;;16.60;98.00;;;;;;5033307;28;20948;-64
2023/05/04 08:08:04;;;;;;;5.67;3.57;;;16.70;98.00;;;;;;5033542;28;20953;-64
2023/05/04 08:10:35;;;;;;;9.00;4.60;;;16.80;98.00;;;;;;5033329;28;20505;-64
2023/05/04 08:13:04;;;;;;;11.20;4.87;;;16.90;98.00;;;;;;5033313;28;20537;-64
2023/05/04 08:15:31;;;;;;;9.17;4.63;;;17.10;98.00;;;;;;5033408;28;20485;-64
2023/05/04 08:17:58;;;;;;;6.73;3.60;;;17.20;98.00;;;;;;5033277;28;20485;-65
2023/05/04 08:20:25;;;;;;;7.60;4.53;;;17.40;98.00;;;;;;5033267;28;20447;-62
2023/05/04 08:22:52;;;;;;;9.60;4.10;;;17.50;98.00;;;;;;5032335;28;20490;-64
2023/05/04 08:25:20;;;;;;;7.90;4.10;;;17.70;98.00;;;;;;5033056;28;20457;-64
2023/05/04 08:27:47;;;;;;;16.33;3.67;;;17.80;98.00;;;;;;5033099;28;20550;-64
2023/05/04 08:30:17;;;;;;;6.57;3.97;;;17.90;98.00;;;;;;5033215;28;20478;-64
2023/05/04 08:32:44;;;;;;;10.60;3.27;;;18.00;98.00;;;;;;5033181;28;20833;-64
2023/05/04 08:35:11;;;;;;;8.10;4.00;;;18.10;98.00;;;;;;5033325;28;20827;-64
2023/05/04 08:37:38;;;;;;;8.13;3.90;;;18.20;98.00;;;;;;5047755;28;20449;-65
2023/05/04 08:40:07;;;;;;;10.63;4.33;;;18.30;98.00;;;;;;5052186;28;20971;-64
2023/05/04 08:42:34;;;;;;;8.00;3.60;;;18.50;97.60;;;;;;5052445;28;20474;-64
2023/05/04 08:45:01;;;;;;;6.63;3.60;;;18.70;97.10;;;;;;5052375;28;20512;-64
2023/05/04 08:47:30;;;;;;;8.73;4.50;;;18.80;98.00;;;;;;5034356;28;20824;-64
2023/05/04 08:49:57;;;;;;;6.17;3.60;;;18.90;96.60;;;;;;5034403;28;20465;-64
2023/05/04 08:52:26;;;;;;;8.33;4.40;;;19.10;98.00;;;;;;5052018;28;20458;-64
2023/05/04 08:54:54;;;;;;;7.00;3.70;;;19.20;95.30;;;;;;5034571;28;20454;-64
2023/05/04 08:57:23;;;;;;;11.43;4.07;;;19.30;96.20;;;;;;5046556;28;20657;-64
2023/05/04 08:59:53;;;;;;;7.17;3.93;;;19.30;94.70;;;;;;5051708;28;20493;-64
2023/05/04 09:02:21;;;;;;;8.10;4.20;;;19.30;95.10;;;;;;5051614;28;20505;-64
2023/05/04 09:04:51;;;;;;;6.53;3.67;;;19.50;95.10;;;;;;5051643;28;20462;-64
2023/05/04 09:07:19;;;;;;;8.60;3.63;;;19.60;95.90;;;;;;5051610;28;20947;-64
2023/05/04 09:09:47;;;;;;;6.67;4.10;;;19.70;93.50;;;;;;5051528;28;20462;-64
2023/05/04 09:12:15;;;;;;;9.00;4.47;;;19.80;93.50;;;;;;5051827;28;20453;-65
2023/05/04 09:14:45;;;;;;;5.80;3.63;;;19.90;92.80;;;;;;5034260;28;20520;-64
2023/05/04 09:17:24;;;;;;;7.30;3.60;;;20.00;92.30;;;;;;5051523;28;20461;-64
2023/05/04 09:19:59;;;;;;;5.83;3.30;;;20.10;91.20;;;;;;5051198;28;20544;-64
2023/05/04 09:22:27;;;;;;;7.30;3.93;;;20.20;89.90;;;;;;5051351;28;20461;-64
2023/05/04 09:25:12;;;;;;;7.47;4.17;;;20.30;92.00;;;;;;5051413;28;20460;-64
2023/05/04 09:27:40;;;;;;;6.63;3.70;;;20.40;90.40;;;;;;5051454;28;20466;-64
2023/05/04 09:30:08;;;;;;;8.20;3.87;;;20.50;89.60;;;;;;5051665;28;20480;-64
2023/05/04 09:32:44;;;;;;;7.07;3.47;;;20.60;87.40;;;;;;5051365;28;20462;-64
2023/05/04 09:35:13;;;;;;;6.43;3.50;;;20.70;91.10;;;;;;5051141;28;20808;-64
2023/05/04 09:37:44;;;;;;;5.50;3.47;;;20.80;87.70;;;;;;5051110;28;20515;-64
2023/05/04 09:40:13;;;;;;;6.80;3.60;;;21.00;88.60;;;;;;5051569;28;20504;-64
2023/05/04 09:42:40;;;;;;;8.00;4.17;;;21.10;88.10;;;;;;5051062;28;20449;-65
2023/05/04 09:45:09;;;;;;;8.70;3.90;;;21.20;87.20;;;;;;5051351;28;20506;-64
2023/05/04 09:47:38;;;;;;;9.47;3.73;;;21.30;87.00;;;;;;5051092;28;20793;-64
2023/05/04 09:50:14;;;;;;;6.53;3.70;;;21.40;85.80;;;;;;5050977;28;20541;-65
2023/05/04 09:52:43;;;;;;;6.30;3.73;;;21.50;86.00;;;;;;5033778;28;20468;-64
2023/05/04 09:55:13;;;;;;;7.20;3.40;;;21.60;86.90;;;;;;5051620;28;20500;-65
2023/05/04 09:57:42;;;;;;;8.20;3.90;;;21.70;87.40;;;;;;5051636;28;20465;-65
2023/05/04 10:00:12;;;;;;;7.97;4.30;;;21.80;87.40;;;;;;5051607;28;20477;-65
2023/05/04 10:02:39;;;;;;;6.30;3.70;;;22.00;86.40;;;;;;5017660;28;20959;-65
2023/05/04 10:05:10;;;;;;;5.10;3.53;;;22.10;84.70;;;;;;5051684;28;20465;-65
2023/05/04 10:07:39;;;;;;;6.00;3.80;;;22.10;84.60;;;;;;5051574;28;20968;-65
2023/05/04 10:10:10;;;;;;;7.60;4.10;;;22.10;86.80;;;;;;5051592;28;20975;-65
2023/05/04 10:12:37;;;;;;;7.27;3.90;;;22.30;88.70;;;;;;5051618;28;20472;-65
2023/05/04 10:15:07;;;;;;;5.47;3.60;;;22.30;84.90;;;;;;5034121;28;20465;-65
2023/05/04 10:17:48;;;;;;;7.73;4.20;;;22.40;83.40;;;;;;5051679;28;20540;-65
2023/05/04 10:20:32;;;;;;;7.68;4.07;;;22.50;82.90;;;;;;5034020;28;20459;-64
2023/05/04 10:23:15;;;;;;;6.93;3.70;;;22.70;84.00;;;;;;5051773;28;20321;-65
2023/05/04 10:25:59;;;;;;;9.27;4.70;;;22.80;84.20;;;;;;5051498;28;20468;-64
2023/05/04 10:28:41;;;;;;;8.17;3.90;;;23.10;83.80;;;;;;5051591;28;20465;-63
2023/05/04 10:31:08;;;;;;;8.80;4.70;;;23.20;82.00;;;;;;5051468;28;20464;-62
2023/05/04 10:33:39;;;;;;;5.67;3.80;;;23.30;83.90;;;;;;5051296;28;20457;-62
2023/05/04 10:36:07;;;;;;;9.87;4.50;;;23.50;83.10;;;;;;5033616;28;20494;-62
2023/05/04 10:38:37;;;;;;;7.40;4.30;;;23.70;82.60;;;;;;5051312;28;20958;-61
2023/05/04 10:41:14;;;;;;;6.77;3.97;;;23.60;78.90;;;;;;5050850;28;20457;-61
2023/05/04 10:43:41;;;;;;;6.83;4.10;;;23.70;81.50;;;;;;5033834;28;20581;-61
2023/05/04 10:46:17;;;;;;;8.60;3.90;;;23.70;79.10;;;;;;5051495;28;20511;-61
2023/05/04 10:48:44;;;;;;;6.70;4.03;;;23.90;78.80;;;;;;5054996;28;20557;-61
2023/05/04 10:51:18;;;;;;;9.73;4.20;;;24.00;79.10;;;;;;5055026;28;20457;-61
2023/05/04 10:53:47;;;;;;;6.30;3.63;;;24.20;80.70;;;;;;5054659;28;20480;-62
2023/05/04 10:56:25;;;;;;;6.03;3.30;;;24.30;79.10;;;;;;5054774;28;20460;-62
2023/05/04 10:58:52;;;;;;;5.60;3.70;;;24.40;80.30;;;;;;5054600;28;20461;-61
2023/05/04 11:01:20;;;;;;;7.17;4.20;;;24.50;78.10;;;;;;5054880;28;20465;-61
2023/05/04 11:03:49;;;;;;;7.70;3.47;;;24.50;79.30;;;;;;5054413;28;20481;-61
2023/05/04 11:06:22;;;;;;;5.80;4.00;;;24.70;76.70;;;;;;5054771;28;20500;-61
2023/05/04 11:08:59;;;;;;;7.23;3.90;;;24.70;73.60;;;;;;5054384;28;20461;-61
2023/05/04 11:11:30;;;;;;;7.60;3.70;;;24.70;74.50;;;;;;5054884;28;20464;-61
2023/05/04 11:13:57;;;;;;;6.97;3.37;;;24.90;73.20;;;;;;5054408;28;20458;-62
2023/05/04 11:16:25;;;;;;;8.17;4.10;;;25.00;73.40;;;;;;5054913;28;20469;-61
2023/05/04 11:18:53;;;;;;;7.43;4.07;;;25.00;72.30;;;;;;5054553;28;20465;-61
2023/05/04 11:21:29;;;;;;;5.13;3.63;;;25.10;75.40;;;;;;5054166;28;20500;-62
2023/05/04 11:24:01;;;;;;;6.97;4.03;;;25.20;73.10;;;;;;5054088;28;20884;-61
2023/05/04 11:26:28;;;;;;;7.73;4.13;;;25.20;73.80;;;;;;5054373;28;20454;-61
2023/05/04 11:28:56;;;;;;;6.87;4.20;;;25.30;74.30;;;;;;5036405;28;20449;-61
2023/05/04 11:31:23;;;;;;;6.07;3.60;;;25.40;72.10;;;;;;5054201;28;20537;-61
2023/05/04 11:33:51;;;;;;;7.67;3.90;;;25.40;70.80;;;;;;5053867;28;20824;-61
2023/05/04 11:36:20;;;;;;;6.10;3.70;;;25.60;73.60;;;;;;5053954;28;20462;-61
2023/05/04 11:38:48;;;;;;;6.50;4.07;;;25.70;72.90;;;;;;5053760;28;20442;-61
2023/05/04 11:41:17;;;;;;;8.80;4.37;;;25.70;72.60;;;;;;5053963;28;20511;-61
2023/05/04 11:43:45;;;;;;;7.87;4.50;;;25.80;73.60;;;;;;5053455;28;20485;-61
2023/05/04 11:46:15;;;;;;;6.70;4.03;;;25.80;75.60;;;;;;5053382;28;20834;-61
2023/05/04 11:48:42;;;;;;;7.97;3.60;;;26.00;75.50;;;;;;5052640;28;20473;-61
2023/05/04 11:51:09;;;;;;;11.10;4.20;;;26.00;74.80;;;;;;5053092;28;20468;-61
2023/05/04 11:53:40;;;;;;;6.60;4.17;;;26.30;77.50;;;;;;5053369;28;20465;-61
2023/05/04 11:56:08;;;;;;;11.23;4.27;;;26.40;73.90;;;;;;5053832;28;20465;-61
2023/05/04 11:58:37;;;;;;;6.20;3.63;;;26.70;74.90;;;;;;5046998;28;20463;-62
2023/05/04 12:01:04;;;;;;;8.17;4.13;;;27.00;74.90;;;;;;5053007;28;20453;-61
2023/05/04 12:03:33;;;;;;;8.57;5.10;;;27.10;75.00;;;;;;5053309;28;20577;-61
2023/05/04 12:06:01;;;;;;;7.83;4.50;;;27.30;74.70;;;;;;5053115;28;20563;-61
2023/05/04 12:08:30;;;;;;;7.50;4.47;;;27.30;72.90;;;;;;5053311;28;20523;-61
2023/05/04 12:11:15;;;;;;;8.00;4.30;;;27.40;72.70;;;;;;5053381;28;20465;-62
2023/05/04 12:13:45;;;;;;;11.73;4.93;;;27.70;72.80;;;;;;5053489;28;20465;-61
2023/05/04 12:16:13;;;;;;;8.30;4.47;;;27.80;73.80;;;;;;5053069;28;20453;-61
2023/05/04 12:18:41;;;;;;;8.07;4.53;;;27.80;73.40;;;;;;5053449;28;20462;-61
2023/05/04 12:21:12;;;;;;;6.30;4.00;;;27.90;70.60;;;;;;5053207;28;20960;-62
2023/05/04 12:23:40;;;;;;;8.80;5.20;;;28.00;74.10;;;;;;5053162;28;20505;-62
2023/05/04 12:26:08;;;;;;;8.07;4.60;;;28.20;74.10;;;;;;5052823;28;20474;-62
2023/05/04 12:28:36;;;;;;;7.77;4.40;;;28.30;73.60;;;;;;5053089;28;21116;-62
2023/05/04 12:31:05;;;;;;;6.60;4.00;;;28.00;71.00;;;;;;5053167;28;20480;-62
2023/05/04 12:33:33;;;;;;;7.10;4.47;;;28.20;70.00;;;;;;5052850;28;20502;-62
2023/05/04 12:36:00;;;;;;;8.00;4.07;;;28.20;69.10;;;;;;5052572;28;20449;-62
2023/05/04 12:38:28;;;;;;;7.17;4.00;;;28.50;69.10;;;;;;5052506;28;21101;-62
2023/05/04 12:40:57;;;;;;;7.70;4.40;;;28.60;69.30;;;;;;5052455;28;20457;-62
2023/05/04 12:43:24;;;;;;;7.63;4.53;;;28.70;71.90;;;;;;5052252;28;20463;-62
2023/05/04 12:45:52;;;;;;;7.40;3.90;;;28.80;69.40;;;;;;5052371;28;20463;-62
2023/05/04 12:48:21;;;;;;;8.77;4.80;;;28.70;70.60;;;;;;5052743;28;20465;-62
2023/05/04 12:50:49;;;;;;;8.63;4.70;;;28.80;70.50;;;;;;5052753;28;20458;-62
2023/05/04 12:53:16;;;;;;;8.90;4.40;;;28.70;70.00;;;;;;5052659;28;20449;-62
2023/05/04 12:55:44;;;;;;;8.33;4.90;;;28.70;68.00;;;;;;5052685;28;20481;-62
2023/05/04 12:58:11;;;;;;;8.23;4.70;;;28.70;68.70;;;;;;5052600;28;20465;-62
2023/05/04 13:00:39;;;;;;;8.83;4.60;;;28.60;70.50;;;;;;5035116;28;20458;-62